createdAt,value
2023-02-14T00:03:36.680Z,109.14745
2023-02-14T00:08:37.609Z,108.26667
2023-02-14T00:13:38.487Z,107.82979
2023-02-14T00:18:39.388Z,106.96296
2023-02-14T00:23:40.374Z,107.39523
2023-02-14T00:28:41.341Z,107.39523
2023-02-14T00:33:42.591Z,107.39523
2023-02-14T00:38:43.558Z,107.82979
2023-02-14T00:43:45.477Z,107.82979
2023-02-14T00:48:46.414Z,108.26667
2023-02-14T00:53:47.353Z,108.70588
2023-02-14T00:58:48.272Z,109.14745
2023-02-14T01:03:49.424Z,109.14745
2023-02-14T01:08:50.381Z,108.70588
2023-02-14T01:13:51.348Z,108.26667
2023-02-14T01:18:52.357Z,108.26667
2023-02-14T01:23:53.353Z,107.82979
2023-02-14T01:28:54.266Z,107.82979
2023-02-14T01:33:55.209Z,108.70588
2023-02-14T01:38:56.149Z,109.14745
2023-02-14T01:43:57.081Z,108.70588
2023-02-14T01:48:58.163Z,108.70588
2023-02-14T01:53:59.212Z,109.14745
2023-02-14T01:59:00.217Z,108.70588
2023-02-14T02:04:01.217Z,107.82979
2023-02-14T02:09:02.373Z,107.82979
2023-02-14T02:14:03.289Z,108.26667
2023-02-14T02:19:04.213Z,107.39523
2023-02-14T02:24:05.140Z,107.82979
2023-02-14T02:29:06.074Z,108.26667
2023-02-14T02:34:07.073Z,108.26667
2023-02-14T02:39:08.082Z,108.70588
2023-02-14T02:44:09.013Z,108.70588
2023-02-14T02:49:09.948Z,106.96296
2023-02-14T02:54:10.959Z,106.53298
2023-02-14T02:59:11.893Z,106.53298
2023-02-14T03:04:12.849Z,106.53298
2023-02-14T03:09:13.783Z,105.67979
2023-02-14T03:14:14.698Z,105.25654
2023-02-14T03:19:15.651Z,104.83551
2023-02-14T03:24:16.595Z,105.25654
2023-02-14T03:29:17.531Z,105.67979
2023-02-14T03:34:18.473Z,104.83551
2023-02-14T03:39:19.511Z,104.83551
2023-02-14T03:44:20.424Z,105.25654
2023-02-14T03:49:21.826Z,106.10526
2023-02-14T03:54:22.787Z,106.96296
2023-02-14T03:59:23.723Z,108.70588
2023-02-14T04:04:24.890Z,109.14745
2023-02-14T04:09:25.937Z,107.39523
2023-02-14T04:14:26.847Z,106.10526
2023-02-14T04:19:27.773Z,106.10526
2023-02-14T04:24:28.705Z,106.96296
2023-02-14T04:29:29.623Z,105.67979
2023-02-14T04:34:30.506Z,105.25654
2023-02-14T04:39:31.679Z,105.25654
2023-02-14T04:44:32.848Z,105.67979
2023-02-14T04:49:33.773Z,105.25654
2023-02-14T04:54:34.681Z,105.25654
2023-02-14T04:59:35.638Z,104.83551
2023-02-14T05:04:36.548Z,104.83551
2023-02-14T05:09:37.744Z,104.41667
2023-02-14T05:14:38.678Z,105.25654
2023-02-14T05:19:39.591Z,104.41667
2023-02-14T05:24:40.486Z,104.0
2023-02-14T05:29:41.508Z,103.17313
2023-02-14T05:34:42.423Z,103.58549
2023-02-14T05:39:43.329Z,103.58549
2023-02-14T05:44:44.225Z,103.17313
2023-02-14T05:49:45.154Z,102.35476
2023-02-14T05:54:46.032Z,102.35476
2023-02-14T05:59:46.938Z,101.94872
2023-02-14T06:04:47.927Z,101.54476
2023-02-14T06:09:48.898Z,102.76289
2023-02-14T06:14:49.795Z,101.94872
2023-02-14T06:19:50.717Z,102.35476
2023-02-14T06:24:51.650Z,102.76289
2023-02-14T06:29:52.740Z,103.17313
2023-02-14T06:34:53.648Z,104.41667
2023-02-14T06:39:54.560Z,104.41667
2023-02-14T06:44:55.479Z,104.41667
2023-02-14T06:49:56.500Z,104.0
2023-02-14T06:54:57.410Z,103.58549
2023-02-14T06:59:58.321Z,102.76289
2023-02-14T07:04:59.231Z,101.54476
2023-02-14T07:10:00.248Z,100.743
2023-02-14T07:15:01.180Z,99.94937
2023-02-14T07:20:02.132Z,99.94937
2023-02-14T07:25:03.033Z,99.94937
2023-02-14T07:30:04.088Z,99.94937
2023-02-14T07:35:05.126Z,99.94937
2023-02-14T07:40:08.773Z,99.55556
2023-02-14T07:45:21.550Z,99.94937
2023-02-14T07:50:23.363Z,100.34518
2023-02-14T07:55:24.288Z,100.34518
2023-02-14T08:00:25.260Z,99.55556
2023-02-14T08:05:26.280Z,99.16373
2023-02-14T08:10:27.387Z,99.94937
2023-02-14T08:15:28.324Z,99.94937
2023-02-14T08:20:29.245Z,101.14286
2023-02-14T08:25:30.183Z,100.743
2023-02-14T08:30:31.530Z,101.54476
2023-02-14T08:35:32.913Z,103.17313
2023-02-14T08:40:33.895Z,102.76289
2023-02-14T08:45:34.824Z,102.35476
2023-02-14T08:50:35.792Z,101.54476
2023-02-14T08:55:36.703Z,101.54476
2023-02-14T09:00:37.686Z,100.743
2023-02-14T09:05:38.637Z,100.34518
2023-02-14T09:10:39.638Z,99.94937
2023-02-14T09:15:40.588Z,99.55556
2023-02-14T09:20:41.569Z,98.77387
2023-02-14T09:25:42.520Z,98.38596
2023-02-14T09:30:43.461Z,99.16373
2023-02-14T09:35:44.348Z,98.77387
2023-02-14T09:40:45.284Z,99.94937
2023-02-14T09:45:46.231Z,99.16373
2023-02-14T09:50:47.164Z,99.16373
2023-02-14T09:55:48.102Z,100.34518
2023-02-14T10:00:49.132Z,100.34518
2023-02-14T10:05:50.068Z,98.38596
2023-02-14T10:10:51.407Z,98.0
2023-02-14T10:15:52.298Z,99.16373
2023-02-14T10:20:53.179Z,100.743
2023-02-14T10:25:54.058Z,99.94937
2023-02-14T10:30:55.085Z,98.0
2023-02-14T10:35:56.113Z,97.61596
2023-02-14T10:40:57.188Z,96.8536
2023-02-14T10:45:58.267Z,97.61596
2023-02-14T10:50:59.631Z,98.0
2023-02-14T10:56:00.697Z,97.23383
2023-02-14T11:01:02.108Z,97.61596
2023-02-14T11:06:03.211Z,96.09877
2023-02-14T11:11:04.126Z,96.09877
2023-02-14T11:16:05.060Z,96.09877
2023-02-14T11:21:06.013Z,94.61125
2023-02-14T11:26:06.933Z,94.98039
2023-02-14T11:31:07.910Z,92.79227
2023-02-14T11:36:08.915Z,93.15254
2023-02-14T11:41:09.866Z,95.35135
2023-02-14T11:46:10.855Z,96.09877
2023-02-14T11:51:12.067Z,95.72414
2023-02-14T11:56:12.999Z,97.23383
2023-02-14T12:01:13.927Z,98.0
2023-02-14T12:06:14.975Z,98.38596
2023-02-14T12:11:15.927Z,96.09877
2023-02-14T12:16:16.927Z,96.8536
2023-02-14T12:21:17.858Z,96.47525
2023-02-14T12:26:18.835Z,95.72414
2023-02-14T12:31:19.819Z,95.35135
2023-02-14T12:36:20.819Z,94.2439
2023-02-14T12:41:21.758Z,94.98039
2023-02-14T12:46:22.886Z,98.0
2023-02-14T12:51:23.844Z,99.16373
2023-02-14T12:56:24.766Z,97.61596
2023-02-14T13:01:29.187Z,98.0
2023-02-14T13:06:37.774Z,97.23383
2023-02-14T13:11:38.754Z,96.47525
2023-02-14T13:16:39.695Z,96.09877
2023-02-14T13:21:40.711Z,95.72414
2023-02-14T13:26:41.635Z,94.61125
2023-02-14T13:31:42.706Z,94.61125
2023-02-14T13:36:43.686Z,96.09877
2023-02-14T13:41:44.617Z,96.47525
2023-02-14T13:46:45.603Z,96.09877
2023-02-14T13:51:46.573Z,96.47525
2023-02-14T13:56:47.641Z,97.23383
2023-02-14T14:01:48.574Z,97.61596
2023-02-14T14:06:49.566Z,99.94937
2023-02-14T14:11:50.531Z,98.0
2023-02-14T14:16:51.463Z,98.77387
2023-02-14T14:21:52.396Z,98.77387
2023-02-14T14:26:53.366Z,97.61596
2023-02-14T14:31:54.382Z,97.23383
2023-02-14T14:36:55.400Z,99.55556
2023-02-14T14:41:56.301Z,101.14286
2023-02-14T14:46:57.217Z,101.94872
2023-02-14T14:51:58.157Z,101.54476
2023-02-14T14:56:59.085Z,104.83551
2023-02-14T15:02:00.039Z,104.41667
2023-02-14T15:07:00.940Z,103.17313
2023-02-14T15:12:01.845Z,101.14286
2023-02-14T15:17:02.771Z,99.55556
2023-02-14T15:22:03.701Z,98.77387
2023-02-14T15:27:04.704Z,99.16373
2023-02-14T15:32:05.795Z,99.55556
2023-02-14T15:37:07.184Z,102.76289
2023-02-14T15:42:08.179Z,102.76289
2023-02-14T15:47:09.155Z,101.94872
2023-02-14T15:52:10.078Z,100.743
2023-02-14T15:57:11.003Z,101.14286
2023-02-14T16:02:11.948Z,101.94872
2023-02-14T16:07:12.940Z,103.17313
2023-02-14T16:12:13.876Z,104.41667
2023-02-14T16:17:14.907Z,103.17313
2023-02-14T16:22:15.899Z,103.17313
2023-02-14T16:27:16.820Z,104.83551
2023-02-14T16:32:17.970Z,103.58549
2023-02-14T16:37:18.981Z,102.76289
2023-02-14T16:42:19.944Z,101.94872
2023-02-14T16:47:20.941Z,103.17313
2023-02-14T16:52:23.443Z,102.35476
2023-02-14T16:57:25.896Z,102.35476
2023-02-14T17:02:28.850Z,102.76289
2023-02-14T17:07:29.955Z,103.17313
2023-02-14T17:12:30.883Z,102.76289
2023-02-14T17:17:32.095Z,102.76289
2023-02-14T17:22:33.303Z,102.76289
2023-02-14T17:27:34.506Z,103.17313
2023-02-14T17:32:35.514Z,102.35476
2023-02-14T17:37:36.481Z,103.17313
2023-02-14T17:42:37.361Z,102.35476
2023-02-14T17:47:38.293Z,103.17313
2023-02-14T17:52:39.532Z,103.17313
2023-02-14T17:57:40.543Z,106.53298
2023-02-14T18:02:41.784Z,105.67979
2023-02-14T18:07:42.729Z,105.25654
2023-02-14T18:12:43.675Z,104.83551
2023-02-14T18:17:44.586Z,104.0
2023-02-14T18:22:45.528Z,103.17313
2023-02-14T18:27:46.464Z,104.83551
2023-02-14T18:32:47.369Z,106.10526
2023-02-14T18:37:48.581Z,106.53298
2023-02-14T18:42:49.839Z,109.14745
2023-02-14T18:47:50.763Z,108.70588
2023-02-14T18:52:51.698Z,107.82979
2023-02-14T18:57:52.618Z,107.39523
2023-02-14T19:02:53.528Z,106.53298
2023-02-14T19:07:54.478Z,106.96296
2023-02-14T19:12:55.458Z,107.82979
2023-02-14T19:17:56.399Z,108.70588
2023-02-14T19:22:57.327Z,106.96296
2023-02-14T19:27:58.234Z,106.53298
2023-02-14T19:32:59.169Z,106.96296
2023-02-14T19:38:00.126Z,106.96296
2023-02-14T19:43:01.076Z,106.10526
2023-02-14T19:48:02.124Z,104.83551
2023-02-14T19:53:03.333Z,104.83551
2023-02-14T19:58:04.290Z,106.10526
2023-02-14T20:03:05.222Z,105.67979
2023-02-14T20:08:06.135Z,105.67979
2023-02-14T20:13:07.048Z,105.67979
2023-02-14T20:18:07.925Z,105.25654
2023-02-14T20:23:08.860Z,105.25654
2023-02-14T20:28:09.796Z,105.67979
2023-02-14T20:33:10.874Z,106.53298
2023-02-14T20:38:11.861Z,105.67979
2023-02-14T20:43:12.793Z,104.83551
2023-02-14T20:48:13.784Z,104.83551
2023-02-14T20:53:14.718Z,104.0
2023-02-14T20:58:15.657Z,103.58549
2023-02-14T21:03:16.615Z,104.41667
2023-02-14T21:08:17.568Z,104.83551
2023-02-14T21:13:18.513Z,104.0
2023-02-14T21:18:19.482Z,104.0
2023-02-14T21:23:20.392Z,105.67979
2023-02-14T21:28:21.259Z,106.53298
2023-02-14T21:33:22.157Z,106.53298
2023-02-14T21:38:23.108Z,107.39523
2023-02-14T21:43:24.012Z,106.96296
2023-02-14T21:48:24.917Z,106.96296
2023-02-14T21:53:25.833Z,108.26667
2023-02-14T21:58:26.722Z,108.70588
2023-02-14T22:03:27.603Z,108.70588
2023-02-14T22:08:28.484Z,109.5914
2023-02-14T22:13:29.426Z,108.70588
2023-02-14T22:18:30.396Z,108.26667
2023-02-14T22:23:31.328Z,107.39523
2023-02-14T22:28:32.466Z,106.96296
2023-02-14T22:33:33.668Z,106.10526
2023-02-14T22:38:34.755Z,106.96296
2023-02-14T22:43:35.686Z,107.82979
2023-02-14T22:48:36.608Z,107.82979
2023-02-14T22:53:37.959Z,107.39523
2023-02-14T22:58:38.888Z,107.39523
2023-02-14T23:03:39.860Z,108.26667
2023-02-14T23:08:40.801Z,110.03774
2023-02-14T23:13:41.722Z,110.93767
2023-02-14T23:18:42.742Z,112.30601
2023-02-14T23:23:43.672Z,111.84741
2023-02-14T23:28:44.590Z,111.3913
2023-02-14T23:33:45.633Z,110.93767
2023-02-14T23:38:46.588Z,110.03774
2023-02-14T23:43:47.502Z,110.03774
2023-02-14T23:48:48.424Z,110.03774
2023-02-14T23:53:49.370Z,110.03774
2023-02-14T23:58:50.283Z,110.03774
